sensor_id;sensor_type;location;lat;lon;timestamp;temperature;humidity
1137;DHT22;557;48.466;7.950;2023-03-13T00:02:33;11.20;1.00
1137;DHT22;557;48.466;7.950;2023-03-13T00:05:22;11.10;1.00
1137;DHT22;557;48.466;7.950;2023-03-13T00:08:09;11.20;99.90
1137;DHT22;557;48.466;7.950;2023-03-13T00:10:57;11.30;1.00
1137;DHT22;557;48.466;7.950;2023-03-13T00:13:44;11.30;99.90
1137;DHT22;557;48.466;7.950;2023-03-13T00:16:32;11.30;99.90
1137;DHT22;557;48.466;7.950;2023-03-13T00:19:22;11.40;99.90
1137;DHT22;557;48.466;7.950;2023-03-13T00:22:10;11.50;99.90
1137;DHT22;557;48.466;7.950;2023-03-13T00:24:58;11.50;99.90
1137;DHT22;557;48.466;7.950;2023-03-13T00:27:45;11.50;99.90
1137;DHT22;557;48.466;7.950;2023-03-13T00:30:32;11.50;99.90
1137;DHT22;557;48.466;7.950;2023-03-13T00:33:20;11.50;99.90
1137;DHT22;557;48.466;7.950;2023-03-13T00:36:08;11.50;99.90
1137;DHT22;557;48.466;7.950;2023-03-13T00:38:58;11.50;99.90
1137;DHT22;557;48.466;7.950;2023-03-13T00:41:45;11.50;99.90
1137;DHT22;557;48.466;7.950;2023-03-13T00:44:33;11.40;99.90
1137;DHT22;557;48.466;7.950;2023-03-13T00:47:20;11.40;99.90
1137;DHT22;557;48.466;7.950;2023-03-13T00:50:09;11.40;99.90
1137;DHT22;557;48.466;7.950;2023-03-13T00:52:56;11.50;99.90
1137;DHT22;557;48.466;7.950;2023-03-13T00:55:55;11.50;99.90
1137;DHT22;557;48.466;7.950;2023-03-13T00:58:44;11.50;99.90
1137;DHT22;557;48.466;7.950;2023-03-13T01:01:33;11.60;99.90
1137;DHT22;557;48.466;7.950;2023-03-13T01:04:21;11.60;99.90
1137;DHT22;557;48.466;7.950;2023-03-13T01:07:08;11.70;99.90
1137;DHT22;557;48.466;7.950;2023-03-13T01:09:56;11.70;99.90
1137;DHT22;557;48.466;7.950;2023-03-13T01:12:45;11.80;99.90
1137;DHT22;557;48.466;7.950;2023-03-13T01:15:34;11.90;99.90
1137;DHT22;557;48.466;7.950;2023-03-13T01:18:22;11.90;99.90
1137;DHT22;557;48.466;7.950;2023-03-13T01:21:09;12.10;99.90
1137;DHT22;557;48.466;7.950;2023-03-13T01:23:57;12.10;99.90
1137;DHT22;557;48.466;7.950;2023-03-13T01:26:44;12.10;99.90
1137;DHT22;557;48.466;7.950;2023-03-13T01:29:33;12.10;99.90
1137;DHT22;557;48.466;7.950;2023-03-13T01:32:20;12.00;79.50
1137;DHT22;557;48.466;7.950;2023-03-13T01:35:08;12.00;1.00
1137;DHT22;557;48.466;7.950;2023-03-13T01:37:55;12.00;99.90
1137;DHT22;557;48.466;7.950;2023-03-13T01:40:44;12.00;1.00
1137;DHT22;557;48.466;7.950;2023-03-13T01:43:34;11.90;99.90
1137;DHT22;557;48.466;7.950;2023-03-13T01:46:24;11.80;1.00
1137;DHT22;557;48.466;7.950;2023-03-13T01:49:15;11.70;99.90
1137;DHT22;557;48.466;7.950;2023-03-13T01:52:06;11.70;1.00
1137;DHT22;557;48.466;7.950;2023-03-13T01:54:57;11.70;99.90
1137;DHT22;557;48.466;7.950;2023-03-13T01:57:58;11.70;99.90
1137;DHT22;557;48.466;7.950;2023-03-13T02:00:45;11.60;99.90
1137;DHT22;557;48.466;7.950;2023-03-13T02:03:35;11.70;99.90
1137;DHT22;557;48.466;7.950;2023-03-13T02:06:23;11.70;1.00
1137;DHT22;557;48.466;7.950;2023-03-13T02:09:14;11.50;1.00
1137;DHT22;557;48.466;7.950;2023-03-13T02:12:07;11.50;1.00
1137;DHT22;557;48.466;7.950;2023-03-13T02:14:57;11.60;1.00
1137;DHT22;557;48.466;7.950;2023-03-13T02:17:45;11.60;1.00
1137;DHT22;557;48.466;7.950;2023-03-13T02:20:34;11.60;1.00
1137;DHT22;557;48.466;7.950;2023-03-13T02:23:26;11.70;1.00
1137;DHT22;557;48.466;7.950;2023-03-13T02:26:19;11.70;1.00
1137;DHT22;557;48.466;7.950;2023-03-13T02:29:06;11.70;1.00
1137;DHT22;557;48.466;7.950;2023-03-13T02:31:54;11.70;1.00
1137;DHT22;557;48.466;7.950;2023-03-13T02:34:43;11.80;1.00
1137;DHT22;557;48.466;7.950;2023-03-13T02:37:32;11.80;1.00
1137;DHT22;557;48.466;7.950;2023-03-13T02:40:23;11.80;1.00
1137;DHT22;557;48.466;7.950;2023-03-13T02:43:16;11.80;1.00
1137;DHT22;557;48.466;7.950;2023-03-13T02:46:07;11.80;1.00
1137;DHT22;557;48.466;7.950;2023-03-13T02:48:55;11.70;1.00
1137;DHT22;557;48.466;7.950;2023-03-13T02:51:44;11.70;1.00
1137;DHT22;557;48.466;7.950;2023-03-13T02:54:33;11.70;1.00
1137;DHT22;557;48.466;7.950;2023-03-13T02:57:21;11.70;1.00
1137;DHT22;557;48.466;7.950;2023-03-13T03:00:11;11.60;1.00
1137;DHT22;557;48.466;7.950;2023-03-13T03:03:01;11.60;1.00
1137;DHT22;557;48.466;7.950;2023-03-13T03:05:49;11.60;1.00
1137;DHT22;557;48.466;7.950;2023-03-13T03:08:36;11.60;1.00
1137;DHT22;557;48.466;7.950;2023-03-13T03:11:26;11.70;1.00
1137;DHT22;557;48.466;7.950;2023-03-13T03:14:14;11.70;1.00
1137;DHT22;557;48.466;7.950;2023-03-13T03:17:02;11.70;1.00
1137;DHT22;557;48.466;7.950;2023-03-13T03:19:50;11.80;1.00
1137;DHT22;557;48.466;7.950;2023-03-13T03:22:37;11.80;1.00
1137;DHT22;557;48.466;7.950;2023-03-13T03:25:25;11.90;1.00
1137;DHT22;557;48.466;7.950;2023-03-13T03:28:13;12.20;43.10
1137;DHT22;557;48.466;7.950;2023-03-13T03:31:03;12.40;99.90
1137;DHT22;557;48.466;7.950;2023-03-13T03:33:51;12.50;1.00
1137;DHT22;557;48.466;7.950;2023-03-13T03:36:39;12.50;1.00
1137;DHT22;557;48.466;7.950;2023-03-13T03:39:26;12.50;99.90
1137;DHT22;557;48.466;7.950;2023-03-13T03:42:14;12.50;99.90
1137;DHT22;557;48.466;7.950;2023-03-13T03:45:01;12.50;1.00
1137;DHT22;557;48.466;7.950;2023-03-13T03:47:49;12.50;1.00
1137;DHT22;557;48.466;7.950;2023-03-13T03:50:37;12.50;1.00
1137;DHT22;557;48.466;7.950;2023-03-13T03:53:25;12.50;34.10
1137;DHT22;557;48.466;7.950;2023-03-13T03:56:13;12.50;66.90
1137;DHT22;557;48.466;7.950;2023-03-13T03:59:00;12.50;97.20
1137;DHT22;557;48.466;7.950;2023-03-13T04:01:48;12.50;45.90
1137;DHT22;557;48.466;7.950;2023-03-13T04:04:35;12.50;99.90
1137;DHT22;557;48.466;7.950;2023-03-13T04:07:24;12.50;99.90
1137;DHT22;557;48.466;7.950;2023-03-13T04:10:11;12.50;99.90
1137;DHT22;557;48.466;7.950;2023-03-13T04:12:58;12.60;99.90
1137;DHT22;557;48.466;7.950;2023-03-13T04:15:46;12.60;99.90
1137;DHT22;557;48.466;7.950;2023-03-13T04:18:33;12.70;99.90
1137;DHT22;557;48.466;7.950;2023-03-13T04:21:21;12.60;1.00
1137;DHT22;557;48.466;7.950;2023-03-13T04:24:09;12.60;99.90
1137;DHT22;557;48.466;7.950;2023-03-13T04:26:57;12.70;99.90
1137;DHT22;557;48.466;7.950;2023-03-13T04:29:44;12.70;99.90
1137;DHT22;557;48.466;7.950;2023-03-13T04:32:32;12.70;99.90
1137;DHT22;557;48.466;7.950;2023-03-13T04:35:20;12.70;99.90
1137;DHT22;557;48.466;7.950;2023-03-13T04:38:07;12.70;99.90
1137;DHT22;557;48.466;7.950;2023-03-13T04:40:56;12.70;99.90
1137;DHT22;557;48.466;7.950;2023-03-13T04:43:43;12.70;99.90
1137;DHT22;557;48.466;7.950;2023-03-13T04:46:31;12.60;1.00
1137;DHT22;557;48.466;7.950;2023-03-13T04:49:18;12.60;1.00
1137;DHT22;557;48.466;7.950;2023-03-13T04:52:06;12.50;1.00
1137;DHT22;557;48.466;7.950;2023-03-13T04:54:53;12.50;1.00
1137;DHT22;557;48.466;7.950;2023-03-13T04:57:42;12.40;1.00
1137;DHT22;557;48.466;7.950;2023-03-13T05:00:30;12.40;1.00
1137;DHT22;557;48.466;7.950;2023-03-13T05:03:17;12.20;1.00
1137;DHT22;557;48.466;7.950;2023-03-13T05:06:05;12.00;1.00
1137;DHT22;557;48.466;7.950;2023-03-13T05:08:52;12.00;6.40
1137;DHT22;557;48.466;7.950;2023-03-13T05:11:39;12.00;1.00
1137;DHT22;557;48.466;7.950;2023-03-13T05:14:28;12.00;1.00
1137;DHT22;557;48.466;7.950;2023-03-13T05:17:16;12.00;1.00
1137;DHT22;557;48.466;7.950;2023-03-13T05:20:04;12.00;1.00
1137;DHT22;557;48.466;7.950;2023-03-13T05:22:52;12.00;20.70
1137;DHT22;557;48.466;7.950;2023-03-13T05:25:40;11.90;24.70
1137;DHT22;557;48.466;7.950;2023-03-13T05:28:27;11.90;32.00
1137;DHT22;557;48.466;7.950;2023-03-13T05:31:16;11.80;41.30
1137;DHT22;557;48.466;7.950;2023-03-13T05:34:03;11.80;52.10
1137;DHT22;557;48.466;7.950;2023-03-13T05:36:50;11.80;58.30
1137;DHT22;557;48.466;7.950;2023-03-13T05:39:38;11.80;47.70
1137;DHT22;557;48.466;7.950;2023-03-13T05:42:25;11.90;35.20
1137;DHT22;557;48.466;7.950;2023-03-13T05:45:13;11.90;35.60
1137;DHT22;557;48.466;7.950;2023-03-13T05:48:01;11.90;30.20
1137;DHT22;557;48.466;7.950;2023-03-13T05:50:49;12.00;31.40
1137;DHT22;557;48.466;7.950;2023-03-13T05:53:36;12.00;28.30
1137;DHT22;557;48.466;7.950;2023-03-13T05:56:23;12.00;29.70
1137;DHT22;557;48.466;7.950;2023-03-13T05:59:10;12.00;29.80
1137;DHT22;557;48.466;7.950;2023-03-13T06:01:58;12.00;28.40
1137;DHT22;557;48.466;7.950;2023-03-13T06:04:46;12.10;24.70
1137;DHT22;557;48.466;7.950;2023-03-13T06:07:34;12.20;20.00
1137;DHT22;557;48.466;7.950;2023-03-13T06:10:21;12.10;20.40
1137;DHT22;557;48.466;7.950;2023-03-13T06:13:09;12.10;18.60
1137;DHT22;557;48.466;7.950;2023-03-13T06:15:57;12.10;17.20
1137;DHT22;557;48.466;7.950;2023-03-13T06:18:44;12.20;15.20
1137;DHT22;557;48.466;7.950;2023-03-13T06:21:33;12.20;15.20
1137;DHT22;557;48.466;7.950;2023-03-13T06:24:20;12.20;13.50
1137;DHT22;557;48.466;7.950;2023-03-13T06:27:08;12.20;19.20
1137;DHT22;557;48.466;7.950;2023-03-13T06:29:55;12.20;16.40
1137;DHT22;557;48.466;7.950;2023-03-13T06:32:42;12.30;5.80
1137;DHT22;557;48.466;7.950;2023-03-13T06:35:30;12.30;7.40
1137;DHT22;557;48.466;7.950;2023-03-13T06:38:18;12.30;1.20
1137;DHT22;557;48.466;7.950;2023-03-13T06:41:06;12.30;1.00
1137;DHT22;557;48.466;7.950;2023-03-13T06:43:53;12.40;1.00
1137;DHT22;557;48.466;7.950;2023-03-13T06:46:40;12.40;1.00
1137;DHT22;557;48.466;7.950;2023-03-13T06:49:28;12.50;1.00
1137;DHT22;557;48.466;7.950;2023-03-13T06:52:15;12.60;1.00
1137;DHT22;557;48.466;7.950;2023-03-13T06:55:04;12.60;1.00
1137;DHT22;557;48.466;7.950;2023-03-13T06:57:53;12.70;1.00
1137;DHT22;557;48.466;7.950;2023-03-13T07:00:40;12.80;1.00
1137;DHT22;557;48.466;7.950;2023-03-13T07:03:29;12.80;1.00
1137;DHT22;557;48.466;7.950;2023-03-13T07:06:16;12.90;1.00
1137;DHT22;557;48.466;7.950;2023-03-13T07:09:04;12.90;1.00
1137;DHT22;557;48.466;7.950;2023-03-13T07:11:52;13.00;1.00
1137;DHT22;557;48.466;7.950;2023-03-13T07:14:40;13.10;1.00
1137;DHT22;557;48.466;7.950;2023-03-13T07:17:27;13.10;1.00
1137;DHT22;557;48.466;7.950;2023-03-13T07:20:16;13.10;1.00
1137;DHT22;557;48.466;7.950;2023-03-13T07:23:03;13.10;1.00
1137;DHT22;557;48.466;7.950;2023-03-13T07:25:54;13.10;1.00
1137;DHT22;557;48.466;7.950;2023-03-13T07:28:43;13.20;1.00
1137;DHT22;557;48.466;7.950;2023-03-13T07:31:31;13.30;1.00
1137;DHT22;557;48.466;7.950;2023-03-13T07:34:18;13.30;1.00
1137;DHT22;557;48.466;7.950;2023-03-13T07:37:06;13.30;1.00
1137;DHT22;557;48.466;7.950;2023-03-13T07:39:53;13.30;1.00
1137;DHT22;557;48.466;7.950;2023-03-13T07:42:41;13.20;1.00
1137;DHT22;557;48.466;7.950;2023-03-13T07:45:30;13.30;1.00
1137;DHT22;557;48.466;7.950;2023-03-13T07:48:17;13.40;1.00
1137;DHT22;557;48.466;7.950;2023-03-13T07:51:07;13.40;1.00
1137;DHT22;557;48.466;7.950;2023-03-13T07:53:54;13.50;1.00
1137;DHT22;557;48.466;7.950;2023-03-13T07:56:41;13.60;1.00
1137;DHT22;557;48.466;7.950;2023-03-13T07:59:29;13.60;1.00
1137;DHT22;557;48.466;7.950;2023-03-13T08:02:18;13.70;1.00
1137;DHT22;557;48.466;7.950;2023-03-13T08:05:06;13.70;1.00
1137;DHT22;557;48.466;7.950;2023-03-13T08:07:53;13.80;1.00
1137;DHT22;557;48.466;7.950;2023-03-13T08:10:40;13.80;1.00
1137;DHT22;557;48.466;7.950;2023-03-13T08:13:28;14.00;1.00
1137;DHT22;557;48.466;7.950;2023-03-13T08:16:17;14.20;1.00
1137;DHT22;557;48.466;7.950;2023-03-13T08:19:06;14.30;1.00
1137;DHT22;557;48.466;7.950;2023-03-13T08:21:53;14.40;99.90
1137;DHT22;557;48.466;7.950;2023-03-13T08:24:43;14.50;99.90
1137;DHT22;557;48.466;7.950;2023-03-13T08:27:30;14.60;1.00
1137;DHT22;557;48.466;7.950;2023-03-13T08:30:18;14.70;1.00
1137;DHT22;557;48.466;7.950;2023-03-13T08:33:05;14.80;1.00
1137;DHT22;557;48.466;7.950;2023-03-13T08:35:54;14.80;1.00
1137;DHT22;557;48.466;7.950;2023-03-13T08:38:41;14.80;1.00
1137;DHT22;557;48.466;7.950;2023-03-13T08:41:31;14.80;1.00
1137;DHT22;557;48.466;7.950;2023-03-13T08:44:19;14.90;99.90
1137;DHT22;557;48.466;7.950;2023-03-13T08:47:07;15.00;1.00
1137;DHT22;557;48.466;7.950;2023-03-13T08:49:54;15.10;1.00
1137;DHT22;557;48.466;7.950;2023-03-13T08:52:44;15.10;1.00
1137;DHT22;557;48.466;7.950;2023-03-13T08:55:31;15.10;1.00
1137;DHT22;557;48.466;7.950;2023-03-13T08:58:19;15.30;99.90
1137;DHT22;557;48.466;7.950;2023-03-13T09:01:11;15.60;96.10
1137;DHT22;557;48.466;7.950;2023-03-13T09:03:59;15.70;1.00
1137;DHT22;557;48.466;7.950;2023-03-13T09:06:46;15.80;99.90
1137;DHT22;557;48.466;7.950;2023-03-13T09:09:36;15.80;1.00
1137;DHT22;557;48.466;7.950;2023-03-13T09:12:23;15.90;99.90
1137;DHT22;557;48.466;7.950;2023-03-13T09:15:12;16.20;99.90
1137;DHT22;557;48.466;7.950;2023-03-13T09:18:00;16.40;29.30
1137;DHT22;557;48.466;7.950;2023-03-13T09:20:48;16.40;1.00
1137;DHT22;557;48.466;7.950;2023-03-13T09:23:36;16.20;30.90
1137;DHT22;557;48.466;7.950;2023-03-13T09:26:25;16.10;1.00
1137;DHT22;557;48.466;7.950;2023-03-13T09:29:19;16.10;1.00
1137;DHT22;557;48.466;7.950;2023-03-13T09:32:09;16.40;1.00
1137;DHT22;557;48.466;7.950;2023-03-13T09:34:56;16.80;1.00
1137;DHT22;557;48.466;7.950;2023-03-13T09:37:44;16.70;1.00
1137;DHT22;557;48.466;7.950;2023-03-13T09:40:36;16.70;1.00
1137;DHT22;557;48.466;7.950;2023-03-13T09:43:36;16.80;1.00
1137;DHT22;557;48.466;7.950;2023-03-13T09:46:32;16.90;1.00
1137;DHT22;557;48.466;7.950;2023-03-13T09:49:29;17.40;1.00
1137;DHT22;557;48.466;7.950;2023-03-13T09:52:18;17.80;1.00
1137;DHT22;557;48.466;7.950;2023-03-13T09:55:13;18.10;99.90
1137;DHT22;557;48.466;7.950;2023-03-13T09:58:10;18.20;99.90
1137;DHT22;557;48.466;7.950;2023-03-13T10:01:04;18.10;99.90
1137;DHT22;557;48.466;7.950;2023-03-13T10:03:59;17.90;99.90
1137;DHT22;557;48.466;7.950;2023-03-13T10:06:49;17.70;99.90
1137;DHT22;557;48.466;7.950;2023-03-13T10:09:37;17.90;99.90
1137;DHT22;557;48.466;7.950;2023-03-13T10:12:27;18.50;99.90
1137;DHT22;557;48.466;7.950;2023-03-13T10:18:32;18.20;99.90
1137;DHT22;557;48.466;7.950;2023-03-13T10:21:21;18.00;99.90
1137;DHT22;557;48.466;7.950;2023-03-13T10:24:17;18.00;99.90
1137;DHT22;557;48.466;7.950;2023-03-13T10:27:08;18.00;99.90
1137;DHT22;557;48.466;7.950;2023-03-13T10:29:55;18.00;99.90
1137;DHT22;557;48.466;7.950;2023-03-13T10:32:43;18.30;99.90
1137;DHT22;557;48.466;7.950;2023-03-13T10:35:34;18.80;99.90
1137;DHT22;557;48.466;7.950;2023-03-13T10:38:21;18.90;99.90
1137;DHT22;557;48.466;7.950;2023-03-13T10:41:18;18.50;99.90
1137;DHT22;557;48.466;7.950;2023-03-13T10:44:15;18.40;99.90
1137;DHT22;557;48.466;7.950;2023-03-13T10:47:03;18.60;99.90
1137;DHT22;557;48.466;7.950;2023-03-13T10:49:56;18.50;99.90
1137;DHT22;557;48.466;7.950;2023-03-13T10:52:47;18.90;99.90
1137;DHT22;557;48.466;7.950;2023-03-13T10:55:35;19.50;99.90
1137;DHT22;557;48.466;7.950;2023-03-13T10:58:33;19.80;99.90
1137;DHT22;557;48.466;7.950;2023-03-13T11:01:22;20.00;99.90
1137;DHT22;557;48.466;7.950;2023-03-13T11:04:19;20.00;99.90
1137;DHT22;557;48.466;7.950;2023-03-13T11:07:14;19.90;99.90
1137;DHT22;557;48.466;7.950;2023-03-13T11:10:17;20.00;99.90
1137;DHT22;557;48.466;7.950;2023-03-13T11:13:04;20.20;99.90
1137;DHT22;557;48.466;7.950;2023-03-13T11:15:56;20.10;99.90
1137;DHT22;557;48.466;7.950;2023-03-13T11:19:06;19.90;99.90
1137;DHT22;557;48.466;7.950;2023-03-13T11:22:24;20.20;99.90
1137;DHT22;557;48.466;7.950;2023-03-13T11:25:19;20.80;99.90
1137;DHT22;557;48.466;7.950;2023-03-13T11:28:18;20.80;99.90
1137;DHT22;557;48.466;7.950;2023-03-13T11:31:10;20.90;99.90
1137;DHT22;557;48.466;7.950;2023-03-13T11:34:05;20.70;99.90
1137;DHT22;557;48.466;7.950;2023-03-13T11:36:58;21.00;99.90
1137;DHT22;557;48.466;7.950;2023-03-13T11:40:04;20.70;99.90
1137;DHT22;557;48.466;7.950;2023-03-13T11:51:48;21.00;99.90
1137;DHT22;557;48.466;7.950;2023-03-13T12:03:54;21.50;99.90
1137;DHT22;557;48.466;7.950;2023-03-13T12:06:48;21.70;99.90
1137;DHT22;557;48.466;7.950;2023-03-13T12:09:41;21.70;99.90
1137;DHT22;557;48.466;7.950;2023-03-13T12:12:38;22.00;99.90
1137;DHT22;557;48.466;7.950;2023-03-13T12:15:30;21.60;99.90
1137;DHT22;557;48.466;7.950;2023-03-13T12:18:23;21.60;99.90
1137;DHT22;557;48.466;7.950;2023-03-13T12:21:16;21.70;99.90
1137;DHT22;557;48.466;7.950;2023-03-13T12:24:11;22.00;99.90
1137;DHT22;557;48.466;7.950;2023-03-13T12:27:10;22.10;99.90
1137;DHT22;557;48.466;7.950;2023-03-13T12:30:04;22.40;99.90
1137;DHT22;557;48.466;7.950;2023-03-13T12:32:58;22.60;99.90
1137;DHT22;557;48.466;7.950;2023-03-13T12:35:52;22.50;99.90
1137;DHT22;557;48.466;7.950;2023-03-13T12:38:45;22.20;99.90
1137;DHT22;557;48.466;7.950;2023-03-13T12:41:39;22.30;99.90
1137;DHT22;557;48.466;7.950;2023-03-13T12:44:29;22.20;99.90
1137;DHT22;557;48.466;7.950;2023-03-13T12:47:22;21.90;99.90
1137;DHT22;557;48.466;7.950;2023-03-13T12:50:25;22.10;99.90
1137;DHT22;557;48.466;7.950;2023-03-13T12:53:45;21.90;99.90
1137;DHT22;557;48.466;7.950;2023-03-13T12:59:58;21.30;99.90
1137;DHT22;557;48.466;7.950;2023-03-13T13:03:01;21.20;99.90
1137;DHT22;557;48.466;7.950;2023-03-13T13:06:03;21.20;99.90
1137;DHT22;557;48.466;7.950;2023-03-13T13:09:05;21.80;99.90
1137;DHT22;557;48.466;7.950;2023-03-13T13:11:59;22.50;99.90
1137;DHT22;557;48.466;7.950;2023-03-13T13:15:02;23.00;99.90
1137;DHT22;557;48.466;7.950;2023-03-13T13:18:12;22.90;99.90
1137;DHT22;557;48.466;7.950;2023-03-13T13:21:23;23.00;99.90
1137;DHT22;557;48.466;7.950;2023-03-13T13:24:38;23.10;99.90
1137;DHT22;557;48.466;7.950;2023-03-13T13:27:45;22.60;99.90
1137;DHT22;557;48.466;7.950;2023-03-13T13:30:33;22.30;99.90
1137;DHT22;557;48.466;7.950;2023-03-13T13:33:39;22.20;99.60
1137;DHT22;557;48.466;7.950;2023-03-13T13:36:31;22.40;99.20
1137;DHT22;557;48.466;7.950;2023-03-13T13:39:36;22.70;98.90
1137;DHT22;557;48.466;7.950;2023-03-13T13:42:46;22.50;97.00
1137;DHT22;557;48.466;7.950;2023-03-13T13:45:35;23.30;98.00
1137;DHT22;557;48.466;7.950;2023-03-13T13:48:28;23.20;94.60
1137;DHT22;557;48.466;7.950;2023-03-13T13:51:26;24.00;96.60
1137;DHT22;557;48.466;7.950;2023-03-13T13:54:31;24.60;94.20
1137;DHT22;557;48.466;7.950;2023-03-13T13:57:20;24.60;90.80
1137;DHT22;557;48.466;7.950;2023-03-13T14:00:18;24.20;78.30
1137;DHT22;557;48.466;7.950;2023-03-13T14:03:20;23.90;72.90
1137;DHT22;557;48.466;7.950;2023-03-13T14:06:15;24.00;73.70
1137;DHT22;557;48.466;7.950;2023-03-13T14:09:13;24.40;72.80
1137;DHT22;557;48.466;7.950;2023-03-13T14:12:27;25.10;72.60
1137;DHT22;557;48.466;7.950;2023-03-13T14:15:18;24.90;67.40
1137;DHT22;557;48.466;7.950;2023-03-13T14:18:19;25.10;64.10
1137;DHT22;557;48.466;7.950;2023-03-13T14:21:06;25.10;61.10
1137;DHT22;557;48.466;7.950;2023-03-13T14:23:59;24.30;68.00
1137;DHT22;557;48.466;7.950;2023-03-13T14:26:46;24.40;56.80
1137;DHT22;557;48.466;7.950;2023-03-13T14:29:33;25.10;58.10
1137;DHT22;557;48.466;7.950;2023-03-13T14:32:25;25.80;58.40
1137;DHT22;557;48.466;7.950;2023-03-13T14:35:15;26.20;57.00
1137;DHT22;557;48.466;7.950;2023-03-13T14:38:04;25.10;50.50
1137;DHT22;557;48.466;7.950;2023-03-13T14:40:53;24.10;45.40
1137;DHT22;557;48.466;7.950;2023-03-13T14:43:41;24.00;46.70
1137;DHT22;557;48.466;7.950;2023-03-13T14:46:30;24.80;61.00
1137;DHT22;557;48.466;7.950;2023-03-13T14:49:21;24.90;49.20
1137;DHT22;557;48.466;7.950;2023-03-13T14:52:22;25.70;52.40
1137;DHT22;557;48.466;7.950;2023-03-13T14:55:26;25.50;47.10
1137;DHT22;557;48.466;7.950;2023-03-13T14:58:25;24.60;40.80
1137;DHT22;557;48.466;7.950;2023-03-13T15:01:21;23.90;37.00
1137;DHT22;557;48.466;7.950;2023-03-13T15:04:09;23.70;46.80
1137;DHT22;557;48.466;7.950;2023-03-13T15:07:02;23.70;37.50
1137;DHT22;557;48.466;7.950;2023-03-13T15:09:50;23.80;37.80
1137;DHT22;557;48.466;7.950;2023-03-13T15:12:41;24.30;39.90
1137;DHT22;557;48.466;7.950;2023-03-13T15:15:30;24.30;38.60
1137;DHT22;557;48.466;7.950;2023-03-13T15:18:20;24.30;37.50
1137;DHT22;557;48.466;7.950;2023-03-13T15:21:26;23.80;36.70
1137;DHT22;557;48.466;7.950;2023-03-13T15:24:16;23.40;36.00
1137;DHT22;557;48.466;7.950;2023-03-13T15:27:12;24.40;40.10
1137;DHT22;557;48.466;7.950;2023-03-13T15:30:00;25.60;43.10
1137;DHT22;557;48.466;7.950;2023-03-13T15:32:48;26.00;41.40
1137;DHT22;557;48.466;7.950;2023-03-13T15:35:36;25.90;37.70
1137;DHT22;557;48.466;7.950;2023-03-13T15:38:25;26.50;37.80
1137;DHT22;557;48.466;7.950;2023-03-13T15:41:14;26.60;35.20
1137;DHT22;557;48.466;7.950;2023-03-13T15:44:01;26.20;31.30
1137;DHT22;557;48.466;7.950;2023-03-13T15:46:49;26.10;28.50
1137;DHT22;557;48.466;7.950;2023-03-13T15:49:36;26.00;26.10
1137;DHT22;557;48.466;7.950;2023-03-13T15:52:24;25.00;21.90
1137;DHT22;557;48.466;7.950;2023-03-13T15:55:12;24.00;18.10
1137;DHT22;557;48.466;7.950;2023-03-13T15:58:02;23.30;15.90
1137;DHT22;557;48.466;7.950;2023-03-13T16:00:49;22.80;15.10
1137;DHT22;557;48.466;7.950;2023-03-13T16:03:36;22.40;15.00
1137;DHT22;557;48.466;7.950;2023-03-13T16:06:28;22.20;14.80
1137;DHT22;557;48.466;7.950;2023-03-13T16:09:16;22.00;14.80
1137;DHT22;557;48.466;7.950;2023-03-13T16:12:03;21.90;15.10
1137;DHT22;557;48.466;7.950;2023-03-13T16:14:52;21.70;15.40
1137;DHT22;557;48.466;7.950;2023-03-13T16:17:40;21.60;15.80
1137;DHT22;557;48.466;7.950;2023-03-13T16:20:27;21.40;16.00
1137;DHT22;557;48.466;7.950;2023-03-13T16:23:16;21.40;16.10
1137;DHT22;557;48.466;7.950;2023-03-13T16:26:07;21.30;16.20
1137;DHT22;557;48.466;7.950;2023-03-13T16:28:58;21.20;17.20
1137;DHT22;557;48.466;7.950;2023-03-13T16:31:47;21.20;17.80
1137;DHT22;557;48.466;7.950;2023-03-13T16:34:35;21.00;17.90
1137;DHT22;557;48.466;7.950;2023-03-13T16:37:22;21.00;18.50
1137;DHT22;557;48.466;7.950;2023-03-13T16:40:14;20.90;19.50
1137;DHT22;557;48.466;7.950;2023-03-13T16:43:02;20.80;20.20
1137;DHT22;557;48.466;7.950;2023-03-13T16:45:50;20.70;21.30
1137;DHT22;557;48.466;7.950;2023-03-13T16:48:38;20.60;22.60
1137;DHT22;557;48.466;7.950;2023-03-13T16:51:27;20.50;23.90
1137;DHT22;557;48.466;7.950;2023-03-13T16:54:14;20.40;24.50
1137;DHT22;557;48.466;7.950;2023-03-13T16:57:02;20.30;24.80
1137;DHT22;557;48.466;7.950;2023-03-13T16:59:49;20.30;26.20
1137;DHT22;557;48.466;7.950;2023-03-13T17:02:36;20.20;27.80
1137;DHT22;557;48.466;7.950;2023-03-13T17:05:26;20.10;28.10
1137;DHT22;557;48.466;7.950;2023-03-13T17:08:13;20.00;30.20
1137;DHT22;557;48.466;7.950;2023-03-13T17:11:01;19.80;30.30
1137;DHT22;557;48.466;7.950;2023-03-13T17:13:49;19.80;31.90
1137;DHT22;557;48.466;7.950;2023-03-13T17:16:40;19.60;43.40
1137;DHT22;557;48.466;7.950;2023-03-13T17:19:27;19.40;39.60
1137;DHT22;557;48.466;7.950;2023-03-13T17:22:17;19.30;40.90
1137;DHT22;557;48.466;7.950;2023-03-13T17:25:05;19.10;49.10
1137;DHT22;557;48.466;7.950;2023-03-13T17:27:54;19.00;49.70
1137;DHT22;557;48.466;7.950;2023-03-13T17:30:42;18.90;69.70
1137;DHT22;557;48.466;7.950;2023-03-13T17:33:29;18.90;84.90
1137;DHT22;557;48.466;7.950;2023-03-13T17:36:20;18.70;96.70
1137;DHT22;557;48.466;7.950;2023-03-13T17:39:12;18.60;99.90
1137;DHT22;557;48.466;7.950;2023-03-13T17:42:00;18.50;99.90
1137;DHT22;557;48.466;7.950;2023-03-13T17:44:50;18.40;99.90
1137;DHT22;557;48.466;7.950;2023-03-13T17:47:38;17.80;1.00
1137;DHT22;557;48.466;7.950;2023-03-13T17:50:26;17.00;18.60
1137;DHT22;557;48.466;7.950;2023-03-13T17:53:14;16.10;99.90
1137;DHT22;557;48.466;7.950;2023-03-13T17:56:10;15.60;1.00
1137;DHT22;557;48.466;7.950;2023-03-13T17:58:59;15.40;99.90
1137;DHT22;557;48.466;7.950;2023-03-13T18:01:46;15.20;1.00
1137;DHT22;557;48.466;7.950;2023-03-13T18:04:34;15.00;1.00
1137;DHT22;557;48.466;7.950;2023-03-13T18:07:23;14.90;59.10
1137;DHT22;557;48.466;7.950;2023-03-13T18:10:15;15.00;26.70
1137;DHT22;557;48.466;7.950;2023-03-13T18:13:04;14.90;31.70
1137;DHT22;557;48.466;7.950;2023-03-13T18:15:52;14.90;32.40
1137;DHT22;557;48.466;7.950;2023-03-13T18:18:39;14.80;99.90
1137;DHT22;557;48.466;7.950;2023-03-13T18:21:27;14.70;99.90
1137;DHT22;557;48.466;7.950;2023-03-13T18:24:14;14.60;99.90
1137;DHT22;557;48.466;7.950;2023-03-13T18:27:04;14.50;99.90
1137;DHT22;557;48.466;7.950;2023-03-13T18:29:57;14.50;99.90
1137;DHT22;557;48.466;7.950;2023-03-13T18:32:44;14.50;99.90
1137;DHT22;557;48.466;7.950;2023-03-13T18:35:32;14.50;99.90
1137;DHT22;557;48.466;7.950;2023-03-13T18:38:19;14.50;99.90
1137;DHT22;557;48.466;7.950;2023-03-13T18:41:09;14.40;99.90
1137;DHT22;557;48.466;7.950;2023-03-13T18:43:56;14.30;99.90
1137;DHT22;557;48.466;7.950;2023-03-13T18:46:45;14.30;99.90
1137;DHT22;557;48.466;7.950;2023-03-13T18:49:32;14.30;99.90
1137;DHT22;557;48.466;7.950;2023-03-13T18:52:19;14.30;99.90
1137;DHT22;557;48.466;7.950;2023-03-13T18:55:08;14.30;99.90
1137;DHT22;557;48.466;7.950;2023-03-13T18:57:56;14.30;99.90
1137;DHT22;557;48.466;7.950;2023-03-13T19:00:44;14.20;99.90
1137;DHT22;557;48.466;7.950;2023-03-13T19:03:35;14.20;99.90
1137;DHT22;557;48.466;7.950;2023-03-13T19:06:25;14.10;99.90
1137;DHT22;557;48.466;7.950;2023-03-13T19:09:14;13.90;99.90
1137;DHT22;557;48.466;7.950;2023-03-13T19:12:02;13.60;99.90
1137;DHT22;557;48.466;7.950;2023-03-13T19:14:49;13.30;99.90
1137;DHT22;557;48.466;7.950;2023-03-13T19:17:36;13.20;99.90
1137;DHT22;557;48.466;7.950;2023-03-13T19:20:25;13.00;99.90